sensor_id;sensor_type;location;lat;lon;timestamp;pressure;altitude;pressure_sealevel;temperature;humidity
13765;BME280;6953;48.810;9.204;2023-04-29T00:01:07;98411.56;;;14.00;100.00
13765;BME280;6953;48.810;9.204;2023-04-29T00:03:34;98389.22;;;13.93;100.00
13765;BME280;6953;48.810;9.204;2023-04-29T00:06:02;98403.31;;;14.05;100.00
13765;BME280;6953;48.810;9.204;2023-04-29T00:08:30;98407.34;;;13.98;100.00
13765;BME280;6953;48.810;9.204;2023-04-29T00:10:57;98400.63;;;13.94;100.00
13765;BME280;6953;48.810;9.204;2023-04-29T00:13:24;98403.69;;;13.88;100.00
13765;BME280;6953;48.810;9.204;2023-04-29T00:15:51;98399.78;;;13.81;100.00
13765;BME280;6953;48.810;9.204;2023-04-29T00:18:19;98381.66;;;13.76;100.00
13765;BME280;6953;48.810;9.204;2023-04-29T00:20:46;98396.84;;;13.85;100.00
13765;BME280;6953;48.810;9.204;2023-04-29T00:23:13;98400.72;;;13.80;100.00
13765;BME280;6953;48.810;9.204;2023-04-29T00:25:38;98400.09;;;13.76;100.00
13765;BME280;6953;48.810;9.204;2023-04-29T00:28:05;98396.72;;;13.74;100.00
13765;BME280;6953;48.810;9.204;2023-04-29T00:30:32;98388.00;;;13.61;100.00
13765;BME280;6953;48.810;9.204;2023-04-29T00:33:01;98388.22;;;13.46;100.00
13765;BME280;6953;48.810;9.204;2023-04-29T00:35:31;98384.72;;;13.46;100.00
13765;BME280;6953;48.810;9.204;2023-04-29T00:37:58;98395.06;;;13.48;100.00
13765;BME280;6953;48.810;9.204;2023-04-29T00:40:28;98400.66;;;13.44;100.00
13765;BME280;6953;48.810;9.204;2023-04-29T00:42:55;98409.09;;;13.37;100.00
13765;BME280;6953;48.810;9.204;2023-04-29T00:45:21;98401.50;;;13.32;100.00
13765;BME280;6953;48.810;9.204;2023-04-29T00:47:48;98398.34;;;13.27;100.00
13765;BME280;6953;48.810;9.204;2023-04-29T00:50:15;98394.84;;;13.14;100.00
13765;BME280;6953;48.810;9.204;2023-04-29T00:52:42;98407.50;;;13.22;100.00
13765;BME280;6953;48.810;9.204;2023-04-29T00:55:10;98410.03;;;13.23;100.00
13765;BME280;6953;48.810;9.204;2023-04-29T00:57:40;98409.06;;;13.24;100.00
13765;BME280;6953;48.810;9.204;2023-04-29T01:00:07;98396.75;;;13.12;100.00
13765;BME280;6953;48.810;9.204;2023-04-29T01:02:35;98422.03;;;13.15;100.00
13765;BME280;6953;48.810;9.204;2023-04-29T01:05:03;98417.06;;;13.10;100.00
13765;BME280;6953;48.810;9.204;2023-04-29T01:10:23;98416.66;;;13.04;100.00
13765;BME280;6953;48.810;9.204;2023-04-29T01:13:07;98419.75;;;12.96;100.00
13765;BME280;6953;48.810;9.204;2023-04-29T01:18:25;98422.25;;;12.85;100.00
13765;BME280;6953;48.810;9.204;2023-04-29T01:20:53;98427.16;;;12.77;100.00
13765;BME280;6953;48.810;9.204;2023-04-29T01:23:26;98425.47;;;12.76;100.00
13765;BME280;6953;48.810;9.204;2023-04-29T01:25:52;98319.28;;;12.12;100.00
13765;BME280;6953;48.810;9.204;2023-04-29T01:31:11;98422.50;;;12.68;100.00
13765;BME280;6953;48.810;9.204;2023-04-29T01:34:01;98424.84;;;12.73;100.00
13765;BME280;6953;48.810;9.204;2023-04-29T01:36:42;98429.34;;;12.71;100.00
13765;BME280;6953;48.810;9.204;2023-04-29T01:39:25;98427.78;;;12.68;100.00
13765;BME280;6953;48.810;9.204;2023-04-29T01:44:37;98433.53;;;12.61;100.00
13765;BME280;6953;48.810;9.204;2023-04-29T01:47:05;98351.19;;;12.20;100.00
13765;BME280;6953;48.810;9.204;2023-04-29T01:49:35;98428.91;;;12.64;100.00
13765;BME280;6953;48.810;9.204;2023-04-29T01:52:02;98402.00;;;12.47;100.00
13765;BME280;6953;48.810;9.204;2023-04-29T01:54:31;98381.75;;;12.35;100.00
13765;BME280;6953;48.810;9.204;2023-04-29T01:57:02;98413.50;;;12.58;100.00
13765;BME280;6953;48.810;9.204;2023-04-29T01:59:29;98420.03;;;12.53;100.00
13765;BME280;6953;48.810;9.204;2023-04-29T02:01:56;98420.34;;;12.48;100.00
13765;BME280;6953;48.810;9.204;2023-04-29T02:04:26;98419.38;;;12.49;100.00
13765;BME280;6953;48.810;9.204;2023-04-29T02:06:52;98424.00;;;12.46;100.00
13765;BME280;6953;48.810;9.204;2023-04-29T02:09:24;98409.63;;;12.38;100.00
13765;BME280;6953;48.810;9.204;2023-04-29T02:11:51;98415.56;;;12.41;100.00
13765;BME280;6953;48.810;9.204;2023-04-29T02:14:18;98424.66;;;12.36;100.00
13765;BME280;6953;48.810;9.204;2023-04-29T02:16:45;98424.16;;;12.31;100.00
13765;BME280;6953;48.810;9.204;2023-04-29T02:19:11;98406.41;;;12.20;100.00
13765;BME280;6953;48.810;9.204;2023-04-29T02:21:38;98423.47;;;12.27;100.00
13765;BME280;6953;48.810;9.204;2023-04-29T02:24:08;98420.78;;;12.29;100.00
13765;BME280;6953;48.810;9.204;2023-04-29T02:26:35;98429.69;;;12.26;100.00
13765;BME280;6953;48.810;9.204;2023-04-29T02:29:03;98423.47;;;12.27;100.00
13765;BME280;6953;48.810;9.204;2023-04-29T02:31:30;98426.22;;;12.26;100.00
13765;BME280;6953;48.810;9.204;2023-04-29T02:33:57;98426.28;;;12.24;100.00
13765;BME280;6953;48.810;9.204;2023-04-29T02:36:24;98394.63;;;11.99;100.00
13765;BME280;6953;48.810;9.204;2023-04-29T02:38:51;98408.31;;;12.04;100.00
13765;BME280;6953;48.810;9.204;2023-04-29T02:41:20;98431.97;;;12.18;100.00
13765;BME280;6953;48.810;9.204;2023-04-29T02:43:47;98428.66;;;12.15;100.00
13765;BME280;6953;48.810;9.204;2023-04-29T02:46:17;98422.31;;;12.05;100.00
13765;BME280;6953;48.810;9.204;2023-04-29T02:48:43;98443.50;;;12.16;100.00
13765;BME280;6953;48.810;9.204;2023-04-29T02:51:10;98426.78;;;12.17;100.00
13765;BME280;6953;48.810;9.204;2023-04-29T02:53:36;98427.09;;;12.12;100.00
13765;BME280;6953;48.810;9.204;2023-04-29T02:56:03;98435.09;;;12.11;100.00
13765;BME280;6953;48.810;9.204;2023-04-29T02:58:31;98420.25;;;11.96;100.00
13765;BME280;6953;48.810;9.204;2023-04-29T03:00:57;98430.38;;;12.02;100.00
13765;BME280;6953;48.810;9.204;2023-04-29T03:03:24;98442.59;;;12.03;100.00
13765;BME280;6953;48.810;9.204;2023-04-29T03:05:50;98443.66;;;12.00;100.00
13765;BME280;6953;48.810;9.204;2023-04-29T03:08:16;98399.72;;;11.74;100.00
13765;BME280;6953;48.810;9.204;2023-04-29T03:10:43;98440.44;;;11.95;100.00
13765;BME280;6953;48.810;9.204;2023-04-29T03:13:10;98448.63;;;11.91;100.00
13765;BME280;6953;48.810;9.204;2023-04-29T03:15:37;98442.88;;;11.84;100.00
13765;BME280;6953;48.810;9.204;2023-04-29T03:18:04;98436.81;;;11.70;100.00
13765;BME280;6953;48.810;9.204;2023-04-29T03:20:31;98420.94;;;11.57;100.00
13765;BME280;6953;48.810;9.204;2023-04-29T03:22:57;98444.22;;;11.77;100.00
13765;BME280;6953;48.810;9.204;2023-04-29T03:25:24;98449.38;;;11.79;100.00
13765;BME280;6953;48.810;9.204;2023-04-29T03:27:50;98425.16;;;11.74;100.00
13765;BME280;6953;48.810;9.204;2023-04-29T03:30:17;98440.19;;;11.86;100.00
13765;BME280;6953;48.810;9.204;2023-04-29T03:32:44;98420.75;;;11.74;100.00
13765;BME280;6953;48.810;9.204;2023-04-29T03:35:10;98437.16;;;11.78;100.00
13765;BME280;6953;48.810;9.204;2023-04-29T03:37:36;98420.66;;;11.62;100.00
13765;BME280;6953;48.810;9.204;2023-04-29T03:40:04;98441.03;;;11.72;100.00
13765;BME280;6953;48.810;9.204;2023-04-29T03:42:31;98437.75;;;11.69;100.00
13765;BME280;6953;48.810;9.204;2023-04-29T03:44:58;98408.59;;;11.44;100.00
13765;BME280;6953;48.810;9.204;2023-04-29T03:47:24;98245.00;;;10.44;100.00
13765;BME280;6953;48.810;9.204;2023-04-29T03:49:52;98430.19;;;11.49;100.00
13765;BME280;6953;48.810;9.204;2023-04-29T03:52:19;98438.41;;;11.58;100.00
13765;BME280;6953;48.810;9.204;2023-04-29T03:54:46;98398.81;;;11.32;100.00
13765;BME280;6953;48.810;9.204;2023-04-29T03:57:13;98433.41;;;11.54;100.00
13765;BME280;6953;48.810;9.204;2023-04-29T03:59:40;98433.66;;;11.49;100.00
13765;BME280;6953;48.810;9.204;2023-04-29T04:02:08;98402.13;;;11.36;100.00
13765;BME280;6953;48.810;9.204;2023-04-29T04:04:36;98418.25;;;11.43;100.00
13765;BME280;6953;48.810;9.204;2023-04-29T04:07:04;98442.72;;;11.59;100.00
13765;BME280;6953;48.810;9.204;2023-04-29T04:09:32;98438.06;;;11.49;100.00
13765;BME280;6953;48.810;9.204;2023-04-29T04:12:01;98364.69;;;11.04;100.00
13765;BME280;6953;48.810;9.204;2023-04-29T04:14:30;98448.38;;;11.52;100.00
13765;BME280;6953;48.810;9.204;2023-04-29T04:16:56;98471.19;;;11.51;100.00
13765;BME280;6953;48.810;9.204;2023-04-29T04:19:24;98463.19;;;11.53;100.00
13765;BME280;6953;48.810;9.204;2023-04-29T04:21:52;98468.44;;;11.53;100.00
13765;BME280;6953;48.810;9.204;2023-04-29T04:24:19;98473.56;;;11.56;100.00
13765;BME280;6953;48.810;9.204;2023-04-29T04:26:46;98459.00;;;11.50;100.00
13765;BME280;6953;48.810;9.204;2023-04-29T04:29:14;98478.94;;;11.68;100.00
13765;BME280;6953;48.810;9.204;2023-04-29T04:31:41;98245.16;;;10.28;100.00
13765;BME280;6953;48.810;9.204;2023-04-29T04:34:08;98433.75;;;11.48;100.00
13765;BME280;6953;48.810;9.204;2023-04-29T04:36:34;98491.59;;;11.76;100.00
13765;BME280;6953;48.810;9.204;2023-04-29T04:39:06;98482.53;;;11.81;100.00
13765;BME280;6953;48.810;9.204;2023-04-29T04:41:34;98465.03;;;11.66;100.00
13765;BME280;6953;48.810;9.204;2023-04-29T04:44:01;98495.56;;;11.83;100.00
13765;BME280;6953;48.810;9.204;2023-04-29T04:46:28;98500.72;;;11.84;100.00
13765;BME280;6953;48.810;9.204;2023-04-29T04:48:55;98470.88;;;11.71;100.00
13765;BME280;6953;48.810;9.204;2023-04-29T04:51:21;98483.94;;;11.87;100.00
13765;BME280;6953;48.810;9.204;2023-04-29T04:53:47;98507.50;;;12.02;100.00
13765;BME280;6953;48.810;9.204;2023-04-29T04:56:14;98505.53;;;12.06;100.00
13765;BME280;6953;48.810;9.204;2023-04-29T04:58:40;98506.84;;;12.13;100.00
13765;BME280;6953;48.810;9.204;2023-04-29T05:01:06;98504.38;;;12.24;100.00
13765;BME280;6953;48.810;9.204;2023-04-29T05:03:33;98503.31;;;12.26;100.00
13765;BME280;6953;48.810;9.204;2023-04-29T05:06:00;98505.03;;;12.41;100.00
13765;BME280;6953;48.810;9.204;2023-04-29T05:08:27;98513.00;;;12.53;100.00
13765;BME280;6953;48.810;9.204;2023-04-29T05:10:53;98444.94;;;12.21;100.00
13765;BME280;6953;48.810;9.204;2023-04-29T05:13:19;98490.53;;;12.74;100.00
13765;BME280;6953;48.810;9.204;2023-04-29T05:15:45;98519.34;;;13.04;100.00
13765;BME280;6953;48.810;9.204;2023-04-29T05:18:13;98511.16;;;13.08;100.00
13765;BME280;6953;48.810;9.204;2023-04-29T05:20:39;98539.34;;;13.33;100.00
13765;BME280;6953;48.810;9.204;2023-04-29T05:23:05;98529.19;;;13.53;100.00
13765;BME280;6953;48.810;9.204;2023-04-29T05:25:31;98539.66;;;13.92;100.00
13765;BME280;6953;48.810;9.204;2023-04-29T05:28:01;98550.03;;;14.20;100.00
13765;BME280;6953;48.810;9.204;2023-04-29T05:30:27;98551.59;;;14.47;100.00
13765;BME280;6953;48.810;9.204;2023-04-29T05:32:52;98535.31;;;14.53;100.00
13765;BME280;6953;48.810;9.204;2023-04-29T05:35:19;98554.84;;;14.63;100.00
13765;BME280;6953;48.810;9.204;2023-04-29T05:37:45;98552.69;;;14.68;100.00
13765;BME280;6953;48.810;9.204;2023-04-29T05:40:12;98560.47;;;14.94;100.00
13765;BME280;6953;48.810;9.204;2023-04-29T05:42:38;98557.72;;;16.22;100.00
13765;BME280;6953;48.810;9.204;2023-04-29T05:45:05;98540.66;;;17.34;100.00
13765;BME280;6953;48.810;9.204;2023-04-29T05:47:32;98559.63;;;17.81;100.00
13765;BME280;6953;48.810;9.204;2023-04-29T05:49:59;98529.41;;;16.88;100.00
13765;BME280;6953;48.810;9.204;2023-04-29T05:52:27;98562.81;;;16.80;100.00
13765;BME280;6953;48.810;9.204;2023-04-29T05:54:53;98559.44;;;16.89;100.00
13765;BME280;6953;48.810;9.204;2023-04-29T05:57:19;98585.09;;;16.77;100.00
13765;BME280;6953;48.810;9.204;2023-04-29T05:59:45;98571.22;;;16.74;100.00
13765;BME280;6953;48.810;9.204;2023-04-29T06:02:11;98585.63;;;17.25;100.00
13765;BME280;6953;48.810;9.204;2023-04-29T06:04:36;98576.03;;;17.55;100.00
13765;BME280;6953;48.810;9.204;2023-04-29T06:07:02;98597.88;;;18.90;100.00
13765;BME280;6953;48.810;9.204;2023-04-29T06:09:29;98544.41;;;19.71;100.00
13765;BME280;6953;48.810;9.204;2023-04-29T06:11:55;98582.97;;;21.05;100.00
13765;BME280;6953;48.810;9.204;2023-04-29T06:14:21;98599.00;;;21.23;100.00
13765;BME280;6953;48.810;9.204;2023-04-29T06:16:46;98607.63;;;20.81;100.00
13765;BME280;6953;48.810;9.204;2023-04-29T06:19:13;98611.00;;;20.18;100.00
13765;BME280;6953;48.810;9.204;2023-04-29T06:21:39;98607.19;;;19.64;100.00
13765;BME280;6953;48.810;9.204;2023-04-29T06:24:05;98617.75;;;19.26;100.00
13765;BME280;6953;48.810;9.204;2023-04-29T06:26:31;98615.50;;;18.91;100.00
13765;BME280;6953;48.810;9.204;2023-04-29T06:28:56;98625.34;;;18.71;97.43
13765;BME280;6953;48.810;9.204;2023-04-29T06:31:22;98597.00;;;18.51;100.00
13765;BME280;6953;48.810;9.204;2023-04-29T06:33:48;98619.97;;;18.82;100.00
13765;BME280;6953;48.810;9.204;2023-04-29T06:36:14;98628.75;;;19.12;98.69
13765;BME280;6953;48.810;9.204;2023-04-29T06:38:39;98644.41;;;19.05;95.74
13765;BME280;6953;48.810;9.204;2023-04-29T06:41:05;98638.06;;;18.67;92.95
13765;BME280;6953;48.810;9.204;2023-04-29T06:43:31;98644.75;;;18.41;92.41
13765;BME280;6953;48.810;9.204;2023-04-29T06:45:57;98642.81;;;18.43;93.74
13765;BME280;6953;48.810;9.204;2023-04-29T06:48:23;98629.81;;;20.16;90.24
13765;BME280;6953;48.810;9.204;2023-04-29T06:50:56;98636.31;;;21.32;77.29
13765;BME280;6953;48.810;9.204;2023-04-29T06:53:22;98652.94;;;20.90;78.45
13765;BME280;6953;48.810;9.204;2023-04-29T06:55:48;98636.22;;;20.14;80.29
13765;BME280;6953;48.810;9.204;2023-04-29T06:58:16;98651.88;;;19.70;83.42
13765;BME280;6953;48.810;9.204;2023-04-29T07:00:46;98631.06;;;19.26;84.02
13765;BME280;6953;48.810;9.204;2023-04-29T07:03:13;98396.44;;;18.45;81.49
13765;BME280;6953;48.810;9.204;2023-04-29T07:05:39;98648.50;;;22.41;69.67
13765;BME280;6953;48.810;9.204;2023-04-29T07:08:06;98514.75;;;23.57;60.55
13765;BME280;6953;48.810;9.204;2023-04-29T07:10:32;98638.81;;;24.78;57.76
13765;BME280;6953;48.810;9.204;2023-04-29T07:12:58;98625.47;;;23.73;58.56
13765;BME280;6953;48.810;9.204;2023-04-29T07:15:28;98662.75;;;23.17;59.12
13765;BME280;6953;48.810;9.204;2023-04-29T07:17:54;98669.97;;;24.31;57.59
13765;BME280;6953;48.810;9.204;2023-04-29T07:20:20;98496.72;;;23.83;57.09
13765;BME280;6953;48.810;9.204;2023-04-29T07:22:46;98539.16;;;23.38;59.36
13765;BME280;6953;48.810;9.204;2023-04-29T07:25:12;98675.63;;;23.55;60.51
13765;BME280;6953;48.810;9.204;2023-04-29T07:27:38;98673.94;;;22.62;61.57
13765;BME280;6953;48.810;9.204;2023-04-29T07:30:04;98678.69;;;21.99;64.81
13765;BME280;6953;48.810;9.204;2023-04-29T07:32:30;98659.63;;;21.40;66.93
13765;BME280;6953;48.810;9.204;2023-04-29T07:34:56;98686.34;;;21.57;67.08
13765;BME280;6953;48.810;9.204;2023-04-29T07:37:22;98679.97;;;21.14;68.52
13765;BME280;6953;48.810;9.204;2023-04-29T07:39:47;98693.50;;;20.94;69.35
13765;BME280;6953;48.810;9.204;2023-04-29T07:42:13;98674.88;;;20.84;69.20
13765;BME280;6953;48.810;9.204;2023-04-29T07:44:39;98680.63;;;20.89;68.76
13765;BME280;6953;48.810;9.204;2023-04-29T07:47:05;98675.16;;;20.81;69.12
13765;BME280;6953;48.810;9.204;2023-04-29T07:49:31;98694.78;;;20.71;70.00
13765;BME280;6953;48.810;9.204;2023-04-29T07:51:57;98560.66;;;19.87;70.44
13765;BME280;6953;48.810;9.204;2023-04-29T07:54:22;98669.75;;;20.35;70.54
13765;BME280;6953;48.810;9.204;2023-04-29T07:56:48;98695.13;;;20.39;70.73
13765;BME280;6953;48.810;9.204;2023-04-29T07:59:13;98669.84;;;19.96;70.31
13765;BME280;6953;48.810;9.204;2023-04-29T08:01:40;98700.56;;;19.90;72.03
13765;BME280;6953;48.810;9.204;2023-04-29T08:04:06;98700.00;;;19.96;72.42
13765;BME280;6953;48.810;9.204;2023-04-29T08:06:32;98703.97;;;20.02;71.76
13765;BME280;6953;48.810;9.204;2023-04-29T08:08:59;98712.19;;;19.89;72.48
13765;BME280;6953;48.810;9.204;2023-04-29T08:11:25;98712.59;;;19.85;72.68
13765;BME280;6953;48.810;9.204;2023-04-29T08:13:51;98699.69;;;19.81;72.79
13765;BME280;6953;48.810;9.204;2023-04-29T08:16:17;98716.81;;;19.97;72.34
13765;BME280;6953;48.810;9.204;2023-04-29T08:18:42;98693.25;;;19.83;71.91
13765;BME280;6953;48.810;9.204;2023-04-29T08:21:08;98489.94;;;18.39;72.45
13765;BME280;6953;48.810;9.204;2023-04-29T08:23:39;98721.22;;;19.68;73.33
13765;BME280;6953;48.810;9.204;2023-04-29T08:26:04;98722.13;;;19.88;73.10
13765;BME280;6953;48.810;9.204;2023-04-29T08:28:30;98709.22;;;19.74;73.03
13765;BME280;6953;48.810;9.204;2023-04-29T08:30:56;98713.53;;;19.65;73.95
13765;BME280;6953;48.810;9.204;2023-04-29T08:33:22;98682.44;;;19.66;73.98
13765;BME280;6953;48.810;9.204;2023-04-29T08:35:48;98736.97;;;19.90;73.02
13765;BME280;6953;48.810;9.204;2023-04-29T08:38:21;98727.63;;;19.95;73.57
13765;BME280;6953;48.810;9.204;2023-04-29T08:40:47;98732.84;;;20.25;73.43
13765;BME280;6953;48.810;9.204;2023-04-29T08:43:13;98735.94;;;20.49;71.19
13765;BME280;6953;48.810;9.204;2023-04-29T08:45:42;98704.41;;;20.26;71.30
13765;BME280;6953;48.810;9.204;2023-04-29T08:48:08;98704.78;;;20.02;70.74
13765;BME280;6953;48.810;9.204;2023-04-29T08:50:39;98724.84;;;20.06;72.23
13765;BME280;6953;48.810;9.204;2023-04-29T08:53:09;98721.59;;;19.93;73.20
13765;BME280;6953;48.810;9.204;2023-04-29T08:55:45;98761.72;;;20.01;73.61
13765;BME280;6953;48.810;9.204;2023-04-29T08:58:13;98733.59;;;19.88;73.75
13765;BME280;6953;48.810;9.204;2023-04-29T09:00:41;98724.75;;;19.69;74.15
13765;BME280;6953;48.810;9.204;2023-04-29T09:03:26;98735.88;;;19.92;74.34
13765;BME280;6953;48.810;9.204;2023-04-29T09:05:55;98729.66;;;20.22;74.45
13765;BME280;6953;48.810;9.204;2023-04-29T09:08:23;98709.31;;;20.40;72.58
13765;BME280;6953;48.810;9.204;2023-04-29T09:10:51;98667.75;;;20.66;69.32
13765;BME280;6953;48.810;9.204;2023-04-29T09:13:28;98752.66;;;21.71;66.15
13765;BME280;6953;48.810;9.204;2023-04-29T09:15:55;98732.25;;;21.97;64.93
13765;BME280;6953;48.810;9.204;2023-04-29T09:18:47;98720.44;;;22.17;62.43
13765;BME280;6953;48.810;9.204;2023-04-29T09:21:26;98715.34;;;22.06;63.22
13765;BME280;6953;48.810;9.204;2023-04-29T09:24:03;98746.75;;;22.21;61.92
13765;BME280;6953;48.810;9.204;2023-04-29T09:26:49;98746.72;;;22.04;62.02
13765;BME280;6953;48.810;9.204;2023-04-29T09:29:15;98744.31;;;22.28;62.24
13765;BME280;6953;48.810;9.204;2023-04-29T09:31:43;98743.19;;;22.48;60.31
13765;BME280;6953;48.810;9.204;2023-04-29T09:34:11;98746.19;;;22.88;59.59
13765;BME280;6953;48.810;9.204;2023-04-29T09:36:45;98747.44;;;23.44;57.65
13765;BME280;6953;48.810;9.204;2023-04-29T09:39:21;98750.25;;;24.09;55.91
13765;BME280;6953;48.810;9.204;2023-04-29T09:44:29;98733.06;;;24.43;52.37
13765;BME280;6953;48.810;9.204;2023-04-29T09:47:06;98763.13;;;24.63;50.50
13765;BME280;6953;48.810;9.204;2023-04-29T09:49:34;98623.44;;;23.67;51.95
13765;BME280;6953;48.810;9.204;2023-04-29T09:52:04;98768.94;;;26.00;48.39
13765;BME280;6953;48.810;9.204;2023-04-29T09:54:32;98760.97;;;26.15;46.03
13765;BME280;6953;48.810;9.204;2023-04-29T09:57:01;98770.41;;;26.11;46.34
13765;BME280;6953;48.810;9.204;2023-04-29T09:59:31;98750.34;;;25.21;47.32
13765;BME280;6953;48.810;9.204;2023-04-29T10:01:59;98763.97;;;25.27;49.74
13765;BME280;6953;48.810;9.204;2023-04-29T10:04:26;98766.19;;;26.91;42.83
13765;BME280;6953;48.810;9.204;2023-04-29T10:06:53;98756.66;;;27.26;41.29
13765;BME280;6953;48.810;9.204;2023-04-29T10:09:21;98775.94;;;26.92;39.78
13765;BME280;6953;48.810;9.204;2023-04-29T10:11:51;98760.16;;;27.12;40.19
13765;BME280;6953;48.810;9.204;2023-04-29T10:14:19;98764.53;;;27.13;40.60
13765;BME280;6953;48.810;9.204;2023-04-29T10:16:58;98781.03;;;29.31;36.04
13765;BME280;6953;48.810;9.204;2023-04-29T10:19:29;98775.28;;;32.30;28.58
13765;BME280;6953;48.810;9.204;2023-04-29T10:21:59;98804.19;;;34.03;25.27
13765;BME280;6953;48.810;9.204;2023-04-29T10:24:31;98651.84;;;33.30;25.20
13765;BME280;6953;48.810;9.204;2023-04-29T10:26:57;98779.59;;;32.44;26.82
13765;BME280;6953;48.810;9.204;2023-04-29T10:29:24;98797.88;;;32.74;26.62
13765;BME280;6953;48.810;9.204;2023-04-29T10:31:53;98800.91;;;31.84;27.39
13765;BME280;6953;48.810;9.204;2023-04-29T10:34:21;98784.22;;;31.54;28.07
13765;BME280;6953;48.810;9.204;2023-04-29T10:36:48;98794.47;;;32.41;26.40
13765;BME280;6953;48.810;9.204;2023-04-29T10:40:00;98797.88;;;34.56;23.03
13765;BME280;6953;48.810;9.204;2023-04-29T10:42:34;98810.69;;;35.44;23.12
13765;BME280;6953;48.810;9.204;2023-04-29T10:45:29;98819.44;;;32.06;25.97
13765;BME280;6953;48.810;9.204;2023-04-29T10:50:32;98711.00;;;29.15;31.77
13765;BME280;6953;48.810;9.204;2023-04-29T10:53:04;98739.06;;;29.35;32.60
13765;BME280;6953;48.810;9.204;2023-04-29T10:55:31;98747.94;;;29.29;32.66
13765;BME280;6953;48.810;9.204;2023-04-29T10:58:02;98690.56;;;29.06;31.13
13765;BME280;6953;48.810;9.204;2023-04-29T11:00:31;98766.88;;;29.29;32.30
13765;BME280;6953;48.810;9.204;2023-04-29T11:02:59;98744.53;;;29.42;31.42
13765;BME280;6953;48.810;9.204;2023-04-29T11:05:37;98741.13;;;28.29;32.92
13765;BME280;6953;48.810;9.204;2023-04-29T11:08:19;98573.94;;;26.92;33.40
13765;BME280;6953;48.810;9.204;2023-04-29T11:10:59;98746.13;;;27.67;33.77
13765;BME280;6953;48.810;9.204;2023-04-29T11:13:30;98751.88;;;27.79;33.59
13765;BME280;6953;48.810;9.204;2023-04-29T11:16:11;98754.94;;;27.61;33.68
13765;BME280;6953;48.810;9.204;2023-04-29T11:19:05;98743.94;;;28.06;33.07
13765;BME280;6953;48.810;9.204;2023-04-29T11:21:35;98727.38;;;28.45;32.45
13765;BME280;6953;48.810;9.204;2023-04-29T11:24:01;98676.94;;;28.10;34.41
13765;BME280;6953;48.810;9.204;2023-04-29T11:26:33;98591.28;;;27.48;33.23
13765;BME280;6953;48.810;9.204;2023-04-29T11:28:59;98738.09;;;27.74;34.22
13765;BME280;6953;48.810;9.204;2023-04-29T11:31:35;98712.81;;;26.72;35.50
13765;BME280;6953;48.810;9.204;2023-04-29T11:34:02;98495.28;;;24.50;38.57
13765;BME280;6953;48.810;9.204;2023-04-29T11:36:31;98683.63;;;25.86;39.20
13765;BME280;6953;48.810;9.204;2023-04-29T11:38:59;98689.19;;;26.45;36.98
13765;BME280;6953;48.810;9.204;2023-04-29T11:41:25;98729.72;;;27.03;36.20
13765;BME280;6953;48.810;9.204;2023-04-29T11:44:00;98583.56;;;25.99;35.60
13765;BME280;6953;48.810;9.204;2023-04-29T11:46:30;98722.50;;;26.37;36.77
13765;BME280;6953;48.810;9.204;2023-04-29T11:48:56;98702.72;;;25.99;38.53
13765;BME280;6953;48.810;9.204;2023-04-29T11:51:24;98741.19;;;25.61;39.32
13765;BME280;6953;48.810;9.204;2023-04-29T11:53:50;98720.41;;;25.39;39.95
13765;BME280;6953;48.810;9.204;2023-04-29T11:56:15;98505.88;;;24.20;42.69
13765;BME280;6953;48.810;9.204;2023-04-29T11:58:41;98716.47;;;24.96;44.79
13765;BME280;6953;48.810;9.204;2023-04-29T12:01:07;98702.16;;;25.11;45.03
13765;BME280;6953;48.810;9.204;2023-04-29T12:03:33;98628.63;;;25.97;40.81
13765;BME280;6953;48.810;9.204;2023-04-29T12:06:01;98734.34;;;28.33;36.92
13765;BME280;6953;48.810;9.204;2023-04-29T12:08:28;98765.84;;;29.58;32.52
13765;BME280;6953;48.810;9.204;2023-04-29T12:10:57;98661.97;;;28.70;33.43
13765;BME280;6953;48.810;9.204;2023-04-29T12:13:25;98748.16;;;29.95;30.84
13765;BME280;6953;48.810;9.204;2023-04-29T12:15:52;98773.53;;;31.01;29.44
13765;BME280;6953;48.810;9.204;2023-04-29T12:18:18;98729.13;;;31.02;28.12
13765;BME280;6953;48.810;9.204;2023-04-29T12:20:45;98772.94;;;31.57;28.08
13765;BME280;6953;48.810;9.204;2023-04-29T12:23:17;98776.38;;;30.54;28.90
13765;BME280;6953;48.810;9.204;2023-04-29T12:25:51;98662.56;;;30.93;29.41
13765;BME280;6953;48.810;9.204;2023-04-29T12:28:18;98782.84;;;33.82;25.71
13765;BME280;6953;48.810;9.204;2023-04-29T12:30:45;98766.38;;;35.42;23.20
13765;BME280;6953;48.810;9.204;2023-04-29T12:33:24;98802.19;;;35.98;22.55
13765;BME280;6953;48.810;9.204;2023-04-29T12:35:52;98815.03;;;36.59;22.50
13765;BME280;6953;48.810;9.204;2023-04-29T12:38:29;98832.47;;;35.96;22.14
13765;BME280;6953;48.810;9.204;2023-04-29T12:40:58;98811.22;;;33.19;24.66
13765;BME280;6953;48.810;9.204;2023-04-29T12:43:26;98791.09;;;31.50;27.06
13765;BME280;6953;48.810;9.204;2023-04-29T12:46:26;98783.69;;;30.13;28.82
13765;BME280;6953;48.810;9.204;2023-04-29T12:48:46;98773.34;;;28.51;31.97
13765;BME280;6953;48.810;9.204;2023-04-29T12:51:11;98763.03;;;27.61;33.96
13765;BME280;6953;48.810;9.204;2023-04-29T12:53:38;98757.88;;;27.38;35.20
13765;BME280;6953;48.810;9.204;2023-04-29T12:56:05;98728.03;;;26.88;36.04
13765;BME280;6953;48.810;9.204;2023-04-29T12:58:31;98737.53;;;26.98;35.84
13765;BME280;6953;48.810;9.204;2023-04-29T13:00:58;98709.69;;;26.46;36.14
13765;BME280;6953;48.810;9.204;2023-04-29T13:03:23;98752.41;;;27.31;36.53
13765;BME280;6953;48.810;9.204;2023-04-29T13:05:49;98732.91;;;29.48;32.07
13765;BME280;6953;48.810;9.204;2023-04-29T13:08:18;98748.75;;;31.23;28.45
13765;BME280;6953;48.810;9.204;2023-04-29T13:10:45;98606.00;;;31.92;26.23
13765;BME280;6953;48.810;9.204;2023-04-29T13:13:10;98817.66;;;34.52;23.24
13765;BME280;6953;48.810;9.204;2023-04-29T13:15:37;98815.31;;;34.73;24.00
13765;BME280;6953;48.810;9.204;2023-04-29T13:18:05;98827.97;;;34.32;23.79
13765;BME280;6953;48.810;9.204;2023-04-29T13:20:31;98773.53;;;34.25;23.43
13765;BME280;6953;48.810;9.204;2023-04-29T13:22:58;98829.25;;;35.99;21.65
13765;BME280;6953;48.810;9.204;2023-04-29T13:25:23;98807.94;;;37.14;21.02
13765;BME280;6953;48.810;9.204;2023-04-29T13:27:49;98842.25;;;37.05;20.34